Time;durP1;ratioP1;P1;durP2;ratioP2;P2;SDS_P1;SDS_P2;PMS_P1;PMS_P2;Temp;Humidity;BMP_temperature;BMP_pressure;BME280_temperature;BME280_humidity;BME280_pressure;Samples;Min_cycle;Max_cycle;Signal;HPM_P1;HPM_P2
2021/09/04 00:01:35;;;;;;;13.68;7.12;;;;;;;9.10;81.80;99910.94;1742743;81;21037;-75
2021/09/04 00:04:02;;;;;;;12.95;6.05;;;;;;;9.07;81.80;99908.89;1739177;81;21386;-75
2021/09/04 00:06:29;;;;;;;20.75;7.75;;;;;;;9.04;81.85;99905.09;1749215;81;20958;-76
2021/09/04 00:08:56;;;;;;;7.58;5.95;;;;;;;9.02;81.94;99910.38;1720662;81;20916;-76
2021/09/04 00:11:22;;;;;;;12.13;6.00;;;;;;;9.04;82.04;99912.45;1746287;81;20975;-75
2021/09/04 00:13:49;;;;;;;14.05;7.53;;;;;;;9.04;82.09;99912.91;1753028;81;21101;-75
2021/09/04 00:16:16;;;;;;;9.63;7.53;;;;;;;9.06;82.18;99914.55;1753747;81;20951;-76
2021/09/04 00:18:42;;;;;;;13.67;8.13;;;;;;;9.09;82.23;99917.04;1754118;81;21042;-75
2021/09/04 00:21:09;;;;;;;13.05;8.03;;;;;;;9.09;82.17;99917.04;1747891;81;20913;-76
2021/09/04 00:23:36;;;;;;;11.03;6.30;;;;;;;9.08;82.22;99915.35;1753493;81;20951;-75
2021/09/04 00:26:02;;;;;;;19.05;8.38;;;;;;;9.09;82.26;99917.04;1749587;81;21482;-75
2021/09/04 00:28:29;;;;;;;15.15;8.13;;;;;;;9.10;82.30;99925.27;1753900;81;20914;-76
2021/09/04 00:30:55;;;;;;;16.83;8.73;;;;;;;9.14;82.53;99920.33;1750627;81;20901;-75
2021/09/04 00:33:22;;;;;;;12.03;7.53;;;;;;;9.21;82.63;99914.88;1740207;81;20975;-76
2021/09/04 00:35:49;;;;;;;11.60;7.93;;;;;;;9.26;82.64;99915.55;1749833;81;20883;-76
2021/09/04 00:38:16;;;;;;;15.05;8.93;;;;;;;9.29;82.60;99910.22;1752117;81;21874;-75
2021/09/04 00:40:42;;;;;;;12.87;6.80;;;;;;;9.31;82.64;99917.53;1753573;81;20979;-75
2021/09/04 00:43:09;;;;;;;16.27;7.43;;;;;;;9.31;82.55;99918.83;1749890;81;21458;-76
2021/09/04 00:45:36;;;;;;;10.67;7.73;;;;;;;9.21;82.53;99908.36;1745808;81;20861;-75
2021/09/04 00:48:05;;;;;;;12.82;8.45;;;;;;;9.32;82.69;99917.91;1743839;81;20912;-76
2021/09/04 00:50:35;;;;;;;21.37;9.90;;;;;;;9.35;82.74;99921.70;1753771;81;21064;-76
2021/09/04 00:53:03;;;;;;;12.35;7.80;;;;;;;9.36;82.73;99919.50;1751922;81;20926;-75
2021/09/04 00:55:30;;;;;;;19.00;9.28;;;;;;;9.34;82.71;99923.92;1752163;81;20882;-76
2021/09/04 00:57:57;;;;;;;17.35;9.80;;;;;;;9.31;82.75;99919.67;1754213;81;20963;-76
2021/09/04 01:00:24;;;;;;;16.15;9.55;;;;;;;9.33;82.91;99919.63;1754282;81;20876;-75
2021/09/04 01:02:50;;;;;;;20.02;12.10;;;;;;;9.33;82.90;99930.05;1755469;81;21067;-75
2021/09/04 01:05:17;;;;;;;22.67;10.25;;;;;;;9.36;83.04;99927.33;1755515;81;20943;-75
2021/09/04 01:07:44;;;;;;;14.70;9.30;;;;;;;9.37;83.01;99929.86;1749921;81;21856;-76
2021/09/04 01:10:12;;;;;;;16.00;8.60;;;;;;;9.43;83.14;99934.44;1747933;82;20972;-76
2021/09/04 01:12:39;;;;;;;18.87;9.73;;;;;;;9.43;83.14;99934.44;1757051;81;21811;-76
2021/09/04 01:15:09;;;;;;;11.20;7.92;;;;;;;9.46;83.08;99939.06;1767447;80;21408;-76
2021/09/04 01:17:36;;;;;;;16.02;10.35;;;;;;;9.47;83.12;99945.16;1764781;80;20962;-76
2021/09/04 01:20:05;;;;;;;14.87;9.68;;;;;;;9.52;83.25;99936.24;1767861;81;20978;-75
2021/09/04 01:22:32;;;;;;;17.07;10.08;;;;;;;9.54;83.24;99934.41;1766936;81;20951;-75
2021/09/04 01:25:04;;;;;;;15.98;9.68;;;;;;;9.55;83.20;99941.33;1769963;80;26660;-76
2021/09/04 01:27:34;;;;;;;17.73;10.35;;;;;;;9.54;83.12;99933.09;1761330;81;21227;-76
2021/09/04 01:30:02;;;;;;;13.78;8.75;;;;;;;9.53;83.12;99937.93;1765933;80;20942;-76
2021/09/04 01:32:29;;;;;;;19.50;8.50;;;;;;;9.55;83.30;99939.16;1758967;81;20951;-76
2021/09/04 01:35:12;;;;;;;16.45;8.28;;;;;;;9.60;83.46;99939.37;1746156;81;21480;-75
2021/09/04 01:37:40;;;;;;;15.72;8.70;;;;;;;9.60;83.33;99940.67;1760227;80;20988;-76
2021/09/04 01:40:12;;;;;;;13.50;8.68;;;;;;;9.58;83.42;99937.30;1747859;81;21037;-76
2021/09/04 01:42:40;;;;;;;11.20;7.33;;;;;;;9.59;83.36;99939.45;1752747;81;21546;-75
2021/09/04 01:45:09;;;;;;;13.53;8.63;;;;;;;9.57;83.44;99947.31;1745685;81;20941;-75
2021/09/04 01:47:35;;;;;;;11.22;6.67;;;;;;;9.63;83.69;99941.88;1744305;81;20929;-75
2021/09/04 01:50:05;;;;;;;10.43;6.53;;;;;;;9.66;83.57;99940.87;1739055;81;21447;-75
2021/09/04 01:52:32;;;;;;;12.68;7.75;;;;;;;9.62;83.52;99944.08;1750776;81;21034;-76
2021/09/04 01:54:59;;;;;;;9.13;6.47;;;;;;;9.63;83.67;99941.88;1732873;81;21345;-75
2021/09/04 01:57:26;;;;;;;12.63;6.30;;;;;;;9.69;83.76;99939.91;1732773;81;20944;-75
2021/09/04 01:59:52;;;;;;;10.60;5.83;;;;;;;9.71;83.82;99935.50;1740181;81;20894;-75
2021/09/04 02:02:19;;;;;;;12.40;7.00;;;;;;;9.74;83.87;99940.58;1750265;81;21447;-75
2021/09/04 02:04:45;;;;;;;9.18;6.85;;;;;;;9.71;83.51;99947.23;1740285;81;20997;-75
2021/09/04 02:07:12;;;;;;;9.98;6.83;;;;;;;9.62;83.51;99942.77;1748617;81;20937;-76
2021/09/04 02:09:39;;;;;;;9.73;6.40;;;;;;;9.66;83.83;99939.58;1761246;81;21464;-76
2021/09/04 02:12:06;;;;;;;10.15;6.10;;;;;;;9.72;83.93;99948.91;1765226;79;20870;-76
2021/09/04 02:14:33;;;;;;;;;;;;;;;9.75;83.94;99950.13;1776045;80;20916;-76
2021/09/04 02:17:00;;;;;;;11.50;6.35;;;;;;;9.80;83.97;99948.15;1771858;80;21070;-76
2021/09/04 02:19:27;;;;;;;11.68;6.75;;;;;;;9.78;83.93;99945.63;1773544;80;20886;-76
2021/09/04 02:21:54;;;;;;;7.50;5.22;;;;;;;9.77;83.91;99943.06;1770959;79;20874;-75
2021/09/04 02:24:20;;;;;;;8.03;5.33;;;;;;;9.76;83.94;99941.38;1772792;80;21456;-76
2021/09/04 02:26:47;;;;;;;8.05;6.17;;;;;;;9.73;83.84;99950.63;1775489;80;20894;-75
2021/09/04 02:29:14;;;;;;;12.83;6.57;;;;;;;9.72;83.97;99951.52;1773793;80;21713;-75
2021/09/04 02:31:40;;;;;;;8.25;5.75;;;;;;;9.74;84.10;99951.02;1779442;80;21163;-76
2021/09/04 02:34:09;;;;;;;8.60;6.00;;;;;;;9.71;84.01;99940.70;1772906;79;21476;-75
2021/09/04 02:36:36;;;;;;;12.80;6.83;;;;;;;9.66;83.95;99941.34;1775132;80;20921;-75
2021/09/04 02:39:03;;;;;;;11.90;5.65;;;;;;;9.64;84.02;99946.63;1778067;79;20933;-75
2021/09/04 02:41:30;;;;;;;12.03;7.37;;;;;;;9.61;84.05;99948.91;1775216;79;21045;-75
2021/09/04 02:43:57;;;;;;;5.80;5.00;;;;;;;9.62;84.30;99947.98;1775207;80;20948;-75
2021/09/04 02:46:23;;;;;;;9.17;5.53;;;;;;;9.64;84.28;99947.48;1776350;79;21449;-76
2021/09/04 02:48:50;;;;;;;7.62;5.85;;;;;;;9.61;84.19;99943.69;1773460;80;20877;-76
2021/09/04 02:51:17;;;;;;;8.50;5.93;;;;;;;9.59;84.26;99943.36;1775322;79;21500;-76
2021/09/04 02:53:43;;;;;;;9.40;5.97;;;;;;;9.61;84.42;99946.30;1775394;80;21051;-76
2021/09/04 02:56:10;;;;;;;12.33;7.87;;;;;;;9.61;84.37;99944.16;1774563;80;20917;-75
2021/09/04 02:58:37;;;;;;;8.33;5.97;;;;;;;9.57;84.31;99938.65;1772718;80;20910;-76
2021/09/04 03:01:03;;;;;;;11.63;6.70;;;;;;;9.52;84.26;99938.85;1775356;80;21431;-76
2021/09/04 03:03:30;;;;;;;11.87;6.20;;;;;;;9.47;84.34;99939.48;1775448;80;20953;-76
2021/09/04 03:06:00;;;;;;;8.13;6.37;;;;;;;9.44;84.38;99934.39;1775074;79;21212;-76
2021/09/04 03:08:27;;;;;;;12.98;7.62;;;;;;;9.41;84.49;99938.42;1754931;80;20909;-76
2021/09/04 03:10:54;;;;;;;15.13;8.75;;;;;;;9.41;84.54;99937.12;1760285;80;26359;-76
2021/09/04 03:13:21;;;;;;;10.32;7.08;;;;;;;9.41;84.56;99944.94;1749737;80;20957;-76
2021/09/04 03:15:48;;;;;;;12.10;8.07;;;;;;;9.41;84.62;99949.69;1733026;82;20959;-76
2021/09/04 03:18:14;;;;;;;14.80;7.80;;;;;;;9.42;84.63;99953.14;1743092;82;21154;-76
2021/09/04 03:20:41;;;;;;;14.80;8.83;;;;;;;9.43;84.67;99957.44;1735126;82;20919;-75
2021/09/04 03:23:08;;;;;;;14.95;9.48;;;;;;;9.41;84.59;99947.09;1747072;82;20899;-76
2021/09/04 03:25:34;;;;;;;9.87;6.17;;;;;;;9.36;84.51;99945.56;1734810;82;20922;-76
2021/09/04 03:28:01;;;;;;;15.00;8.28;;;;;;;9.30;84.45;99948.38;1740835;82;21586;-75
2021/09/04 03:30:28;;;;;;;14.80;7.37;;;;;;;9.24;84.52;99955.98;1734992;82;21046;-75
2021/09/04 03:32:55;;;;;;;11.57;6.92;;;;;;;9.22;84.64;99956.97;1742723;81;21896;-75
2021/09/04 03:35:21;;;;;;;14.30;7.42;;;;;;;9.19;84.75;99957.48;1742045;82;20947;-76
2021/09/04 03:37:48;;;;;;;13.53;7.37;;;;;;;9.09;84.86;99943.09;1751260;82;20895;-75
2021/09/04 03:40:15;;;;;;;11.60;7.30;;;;;;;9.16;84.91;99956.30;1751018;82;20859;-76
2021/09/04 03:42:42;;;;;;;14.53;7.90;;;;;;;9.17;84.97;99954.07;1749844;82;21198;-76
2021/09/04 03:45:09;;;;;;;;;;;;;;;9.17;84.97;99957.14;1745571;82;20934;-76
2021/09/04 03:47:36;;;;;;;;;;;;;;;9.16;85.05;99957.59;1753484;82;20090;-75
2021/09/04 03:50:03;;;;;;;14.23;8.53;;;;;;;9.14;85.10;99954.19;1749836;82;20507;-75
2021/09/04 03:52:29;;;;;;;15.70;9.08;;;;;;;9.11;85.02;99959.52;1751227;81;20902;-75
2021/09/04 03:54:57;;;;;;;14.40;8.95;;;;;;;9.07;85.02;99968.34;1745065;82;21844;-76
2021/09/04 03:57:24;;;;;;;15.18;7.90;;;;;;;9.04;85.03;99967.61;1751130;82;20866;-75
2021/09/04 03:59:50;;;;;;;12.18;7.42;;;;;;;8.99;85.03;99957.38;1751091;82;20918;-76
2021/09/04 04:02:17;;;;;;;13.50;7.45;;;;;;;8.96;85.03;99961.38;1748948;82;20897;-76
2021/09/04 04:04:44;;;;;;;14.70;7.80;;;;;;;8.98;85.18;99963.48;1749166;82;20912;-76
2021/09/04 04:07:10;;;;;;;13.55;7.92;;;;;;;8.95;85.06;99959.23;1741750;82;20962;-76
2021/09/04 04:09:37;;;;;;;12.93;8.45;;;;;;;8.94;85.08;99963.20;1744230;81;20918;-75
2021/09/04 04:12:04;;;;;;;9.20;5.95;;;;;;;8.89;85.09;99962.52;1741320;81;20987;-76
2021/09/04 04:14:31;;;;;;;13.20;6.92;;;;;;;8.89;85.20;99965.13;1747811;82;27377;-75
2021/09/04 04:16:58;;;;;;;11.38;7.62;;;;;;;8.89;85.17;99969.03;1746552;82;20918;-75
2021/09/04 04:19:24;;;;;;;10.40;6.83;;;;;;;8.95;85.38;99964.89;1750861;81;21047;-76
2021/09/04 04:21:51;;;;;;;7.93;6.00;;;;;;;9.06;85.58;99971.86;1749002;81;20867;-76
2021/09/04 04:24:18;;;;;;;9.38;5.60;;;;;;;9.09;85.73;99957.88;1747849;81;20902;-76
2021/09/04 04:26:44;;;;;;;8.50;6.30;;;;;;;9.48;85.75;99973.75;1748360;82;21373;-76
2021/09/04 04:29:11;;;;;;;8.57;6.20;;;;;;;9.48;85.75;99973.75;1750390;82;20915;-76
2021/09/04 04:31:38;;;;;;;8.90;6.80;;;;;;;9.79;85.57;99977.76;1748638;82;21042;-76
2021/09/04 04:34:05;;;;;;;9.15;6.55;;;;;;;9.94;85.45;99973.25;1745132;82;20954;-76
2021/09/04 04:36:33;;;;;;;11.97;6.40;;;;;;;10.15;85.58;99964.13;1750571;82;20926;-76
2021/09/04 04:39:00;;;;;;;8.35;6.12;;;;;;;10.39;85.64;99970.97;1750828;82;21499;-76
2021/09/04 04:41:27;;;;;;;11.20;6.60;;;;;;;10.65;85.41;99985.97;1748685;81;20958;-76
2021/09/04 04:43:53;;;;;;;12.83;7.63;;;;;;;11.82;85.70;99975.80;1727247;81;21031;-76
2021/09/04 04:46:20;;;;;;;11.07;6.73;;;;;;;11.82;85.70;99975.80;1725322;81;21515;-76
2021/09/04 04:48:46;;;;;;;8.78;6.95;;;;;;;11.83;84.17;99972.25;1730307;81;20934;-76
2021/09/04 04:51:13;;;;;;;8.20;5.87;;;;;;;11.59;83.91;99969.02;1727737;81;20915;-76
2021/09/04 04:53:40;;;;;;;8.13;5.27;;;;;;;11.43;83.86;99973.31;1727769;81;20967;-73
2021/09/04 04:56:06;;;;;;;8.90;5.90;;;;;;;11.26;83.88;99971.48;1727592;81;21858;-74
2021/09/04 04:58:33;;;;;;;7.60;5.77;;;;;;;11.15;84.16;99973.73;1728484;81;20903;-73
2021/09/04 05:01:00;;;;;;;6.57;5.10;;;;;;;11.19;84.67;99953.06;1725728;81;21382;-74
2021/09/04 05:03:26;;;;;;;8.33;5.80;;;;;;;12.36;86.37;99975.79;1728024;81;21414;-74
2021/09/04 05:05:53;;;;;;;11.03;6.60;;;;;;;13.52;85.71;99979.28;1728877;81;21461;-74
2021/09/04 05:08:19;;;;;;;14.17;8.07;;;;;;;14.58;85.06;99977.17;1723292;81;20986;-74
2021/09/04 05:10:46;;;;;;;9.70;7.10;;;;;;;15.48;83.68;99979.11;1729382;81;20907;-74
2021/09/04 05:13:13;;;;;;;14.40;9.28;;;;;;;16.30;83.37;99977.71;1734633;81;20915;-75
2021/09/04 05:15:39;;;;;;;14.53;12.30;;;;;;;17.07;83.05;99972.47;1730627;81;20952;-74
2021/09/04 05:18:06;;;;;;;11.45;9.13;;;;;;;17.59;82.66;99968.77;1730740;81;20896;-75
2021/09/04 05:20:33;;;;;;;8.25;6.67;;;;;;;18.07;81.95;99970.10;1736989;81;21088;-75
2021/09/04 05:22:59;;;;;;;;;;;;;;;18.52;81.15;99975.52;1740117;81;20955;-74
2021/09/04 05:25:26;;;;;;;10.95;8.25;;;;;;;18.45;80.81;99976.93;1730202;80;20470;-75
2021/09/04 05:27:53;;;;;;;10.85;7.05;;;;;;;19.07;82.39;99978.84;1732394;81;20963;-75
2021/09/04 05:30:20;;;;;;;8.98;5.87;;;;;;;19.29;80.69;99974.86;1752651;81;20926;-75
2021/09/04 05:32:46;;;;;;;7.10;5.97;;;;;;;18.81;79.60;99977.75;1752901;81;21894;-75
2021/09/04 05:35:13;;;;;;;10.30;6.12;;;;;;;18.20;79.18;99977.10;1755825;81;20894;-75
2021/09/04 05:37:42;;;;;;;6.95;5.70;;;;;;;17.46;79.03;99979.83;1757833;81;20962;-75
2021/09/04 05:40:09;;;;;;;8.53;5.22;;;;;;;16.75;79.19;99984.77;1755614;81;20941;-75
2021/09/04 05:42:36;;;;;;;7.58;5.00;;;;;;;16.16;79.57;99994.91;1738284;81;20937;-75
2021/09/04 05:45:04;;;;;;;8.08;5.35;;;;;;;15.75;79.95;99987.91;1757950;81;21129;-75
2021/09/04 05:47:30;;;;;;;9.05;4.70;;;;;;;15.39;80.05;99989.27;1754149;81;20936;-75
2021/09/04 05:49:57;;;;;;;6.75;5.15;;;;;;;15.08;80.29;99992.13;1745995;80;20891;-75
2021/09/04 05:52:24;;;;;;;4.85;4.35;;;;;;;14.82;80.21;99998.52;1755548;81;20946;-75
2021/09/04 05:54:50;;;;;;;6.47;4.37;;;;;;;14.58;80.42;100002.13;1757967;81;20938;-75
2021/09/04 05:57:17;;;;;;;6.45;5.00;;;;;;;14.36;80.49;99999.05;1753514;81;21051;-75
2021/09/04 05:59:44;;;;;;;6.05;4.20;;;;;;;14.18;80.58;100003.13;1748549;81;21436;-75
2021/09/04 06:02:10;;;;;;;6.45;4.62;;;;;;;14.10;80.78;100004.88;1756064;81;21549;-75
2021/09/04 06:04:39;;;;;;;9.53;4.73;;;;;;;14.03;80.74;100008.80;1737203;81;20912;-76
2021/09/04 06:07:05;;;;;;;7.65;4.60;;;;;;;13.96;80.74;100015.32;1737768;81;21721;-75
2021/09/04 06:09:32;;;;;;;12.85;5.12;;;;;;;13.95;80.89;100012.77;1737503;81;21046;-76
2021/09/04 06:11:59;;;;;;;9.33;4.53;;;;;;;14.00;80.99;100005.48;1737555;81;20940;-76
2021/09/04 06:14:25;;;;;;;6.67;3.90;;;;;;;14.06;80.86;100011.25;1746565;80;20938;-76
2021/09/04 06:16:52;;;;;;;10.90;4.35;;;;;;;14.04;80.63;100014.42;1748931;79;20914;-76
2021/09/04 06:19:20;;;;;;;8.37;4.40;;;;;;;14.02;80.51;100014.97;1745764;80;20998;-74
2021/09/04 06:21:47;;;;;;;9.20;4.58;;;;;;;14.05;80.74;100009.53;1766744;79;21014;-74
2021/09/04 06:24:13;;;;;;;8.70;5.30;;;;;;;14.05;80.40;100014.78;1754283;79;21454;-75
2021/09/04 06:26:40;;;;;;;9.35;4.00;;;;;;;13.91;80.62;99991.10;1754249;79;20949;-74
2021/09/04 06:29:06;;;;;;;8.87;4.37;;;;;;;14.16;80.64;100015.97;1760758;80;20950;-74
2021/09/04 06:31:35;;;;;;;8.87;4.53;;;;;;;14.25;80.73;100016.73;1751435;80;21560;-75
2021/09/04 06:34:02;;;;;;;9.40;4.33;;;;;;;14.26;80.44;100022.39;1753733;79;21435;-75
2021/09/04 06:36:28;;;;;;;5.70;3.90;;;;;;;14.32;80.68;100029.44;1748523;79;20947;-75
2021/09/04 06:38:55;;;;;;;7.30;5.50;;;;;;;14.39;80.60;100025.97;1758719;79;20945;-75
2021/09/04 06:41:22;;;;;;;10.78;5.05;;;;;;;14.46;80.54;100027.32;1752488;80;21915;-75
2021/09/04 06:43:48;;;;;;;6.83;4.83;;;;;;;14.52;80.54;100026.99;1752451;79;20958;-75
2021/09/04 06:46:15;;;;;;;8.77;5.10;;;;;;;14.58;80.30;100027.57;1754194;80;21101;-75
2021/09/04 06:48:45;;;;;;;4.65;3.72;;;;;;;14.59;80.21;100026.63;1756521;80;21928;-75
2021/09/04 06:51:11;;;;;;;8.78;3.92;;;;;;;14.64;80.17;100027.20;1764013;79;20887;-75
2021/09/04 06:53:40;;;;;;;7.30;3.77;;;;;;;14.70;79.98;100029.46;1756203;79;20907;-75
2021/09/04 06:56:06;;;;;;;6.42;2.85;;;;;;;14.74;79.91;100033.14;1758076;79;21016;-74
2021/09/04 06:58:33;;;;;;;11.40;2.90;;;;;;;14.86;79.98;100034.19;1759146;79;21270;-74
2021/09/04 07:01:00;;;;;;;9.63;2.75;;;;;;;15.04;80.03;100031.38;1761130;79;27041;-74
2021/09/04 07:03:27;;;;;;;10.95;2.47;;;;;;;15.15;79.32;100031.56;1763524;79;20982;-74
2021/09/04 07:05:54;;;;;;;3.25;2.58;;;;;;;15.15;79.32;100031.56;1767115;79;20895;-73
2021/09/04 07:08:20;;;;;;;4.45;2.60;;;;;;;15.03;78.60;100037.59;1767299;79;20935;-74
2021/09/04 07:10:47;;;;;;;4.40;2.50;;;;;;;14.93;78.80;100038.62;1761877;79;20999;-74
2021/09/04 07:13:14;;;;;;;5.33;2.60;;;;;;;14.96;79.22;100036.64;1763064;79;20924;-74
2021/09/04 07:15:41;;;;;;;18.23;3.50;;;;;;;15.07;79.32;100033.81;1734530;81;20941;-74
2021/09/04 07:18:08;;;;;;;5.47;2.42;;;;;;;15.11;79.24;100028.77;1739896;81;21442;-74
2021/09/04 07:20:34;;;;;;;7.95;2.77;;;;;;;15.17;79.02;100034.95;1733332;82;20908;-74
2021/09/04 07:23:01;;;;;;;4.53;2.62;;;;;;;15.27;79.04;100039.20;1733476;81;21072;-75
2021/09/04 07:25:28;;;;;;;11.17;3.90;;;;;;;15.26;78.12;100043.59;1738156;82;20914;-75
2021/09/04 07:27:54;;;;;;;7.45;2.90;;;;;;;15.20;78.31;100040.86;1728194;81;21473;-74
2021/09/04 07:30:21;;;;;;;7.20;2.37;;;;;;;15.41;78.88;100042.66;1734673;81;20942;-73
2021/09/04 07:32:47;;;;;;;8.83;3.03;;;;;;;15.61;78.62;100048.46;1734184;82;20981;-75
2021/09/04 07:35:14;;;;;;;6.15;2.77;;;;;;;15.77;78.39;100045.75;1731846;81;22255;-75
2021/09/04 07:37:41;;;;;;;5.30;1.95;;;;;;;15.87;77.91;100055.56;1735125;81;20939;-75
2021/09/04 07:40:09;;;;;;;7.42;2.40;;;;;;;15.85;77.19;100062.74;1741182;81;20908;-75
2021/09/04 07:42:35;;;;;;;9.85;3.47;;;;;;;15.78;77.12;100062.75;1740411;81;20981;-75
2021/09/04 07:45:03;;;;;;;7.15;2.35;;;;;;;15.61;76.85;100063.78;1735103;82;20952;-75
2021/09/04 07:47:30;;;;;;;4.25;2.12;;;;;;;15.40;76.40;100068.61;1732880;81;21051;-73
2021/09/04 07:49:58;;;;;;;5.03;2.47;;;;;;;15.25;76.21;100068.22;1736877;81;20995;-76
2021/09/04 07:52:26;;;;;;;7.50;3.12;;;;;;;15.27;76.85;100067.66;1719047;82;20963;-77
2021/09/04 07:54:53;;;;;;;8.35;2.52;;;;;;;15.43;77.16;100071.05;1698651;83;20898;-77
2021/09/04 07:57:19;;;;;;;6.33;2.50;;;;;;;15.60;76.97;100075.70;1701702;82;22219;-78
2021/09/04 07:59:46;;;;;;;12.68;2.92;;;;;;;15.73;76.51;100076.66;1696250;83;21223;-78
2021/09/04 08:02:13;;;;;;;6.20;2.20;;;;;;;15.84;76.36;100082.09;1701132;83;20980;-76
2021/09/04 08:04:40;;;;;;;8.03;2.20;;;;;;;15.97;76.27;100078.70;1700666;82;20938;-78
2021/09/04 08:07:06;;;;;;;3.17;1.85;;;;;;;16.11;76.54;100078.66;1731057;81;20926;-78
2021/09/04 08:09:33;;;;;;;6.47;2.12;;;;;;;16.22;75.12;100081.44;1735561;82;20928;-77
2021/09/04 08:12:00;;;;;;;6.55;2.00;;;;;;;15.97;74.84;100079.55;1736020;81;21087;-77
2021/09/04 08:14:26;;;;;;;5.60;1.98;;;;;;;16.00;75.39;100078.50;1749408;80;20955;-78
2021/09/04 08:16:53;;;;;;;20.32;2.12;;;;;;;16.09;75.51;100085.80;1759921;80;20949;-77
2021/09/04 08:19:20;;;;;;;8.58;2.55;;;;;;;16.36;76.12;100087.61;1768257;80;20961;-76
2021/09/04 08:21:46;;;;;;;23.62;2.83;;;;;;;16.66;75.91;100089.51;1767153;80;20935;-76
2021/09/04 08:24:14;;;;;;;4.17;2.08;;;;;;;16.86;75.59;100093.95;1767928;80;21306;-76
2021/09/04 08:26:42;;;;;;;4.20;1.80;;;;;;;16.74;73.70;100087.20;1769618;79;20929;-76
2021/09/04 08:29:10;;;;;;;24.25;5.08;;;;;;;16.54;73.86;100094.29;1763966;80;20910;-76
2021/09/04 08:31:37;;;;;;;17.25;3.10;;;;;;;16.49;73.89;100089.79;1768859;80;20926;-76
2021/09/04 08:34:04;;;;;;;15.25;3.87;;;;;;;16.61;74.73;100092.95;1767042;80;20942;-76
2021/09/04 08:36:30;;;;;;;11.93;2.58;;;;;;;16.89;74.92;100098.57;1760434;80;21081;-75
2021/09/04 08:38:57;;;;;;;16.82;3.12;;;;;;;17.12;73.87;100098.80;1758349;80;21525;-76
2021/09/04 08:41:24;;;;;;;4.15;2.35;;;;;;;17.11;74.08;100088.73;1769132;80;20873;-74
2021/09/04 08:43:51;;;;;;;3.20;1.82;;;;;;;17.32;74.08;100088.19;1759734;80;21456;-74
2021/09/04 08:46:18;;;;;;;46.45;4.42;;;;;;;17.37;73.77;100086.08;1759626;80;20991;-73
2021/09/04 08:48:45;;;;;;;23.35;2.95;;;;;;;17.53;73.92;100088.02;1760627;80;21657;-74
2021/09/04 08:51:12;;;;;;;6.35;1.60;;;;;;;17.66;73.76;100090.13;1752394;80;20929;-74
2021/09/04 08:53:40;;;;;;;7.08;1.90;;;;;;;17.64;72.81;100089.42;1743084;80;20947;-74
2021/09/04 08:56:09;;;;;;;3.87;1.70;;;;;;;17.39;71.97;100090.75;1769672;80;20903;-74
2021/09/04 08:58:37;;;;;;;7.12;1.72;;;;;;;17.05;71.55;100086.48;1771358;80;20952;-77
2021/09/04 09:01:21;;;;;;;5.00;1.65;;;;;;;16.96;72.13;100092.39;1760941;80;21051;-79
2021/09/04 09:03:49;;;;;;;1.90;1.55;;;;;;;16.81;71.59;100101.36;1767517;80;20951;-86
2021/09/04 09:06:27;;;;;;;3.02;1.87;;;;;;;16.60;71.24;100107.53;1763248;80;21484;-78
2021/09/04 09:08:55;;;;;;;2.02;1.25;;;;;;;16.32;70.40;100111.50;1758910;80;20951;-77
2021/09/04 09:11:23;;;;;;;3.77;2.05;;;;;;;16.22;71.43;100107.78;1757299;80;20961;-76
2021/09/04 09:13:53;;;;;;;32.15;3.80;;;;;;;16.28;71.62;100107.38;1766037;80;21058;-77
2021/09/04 09:16:23;;;;;;;5.58;1.67;;;;;;;16.52;72.26;100106.72;1765709;80;20937;-77
2021/09/04 09:19:02;;;;;;;5.47;1.85;;;;;;;16.75;72.02;100113.97;1755476;81;20960;-78
2021/09/04 09:21:32;;;;;;;12.47;2.87;;;;;;;16.85;71.26;100113.38;1755404;80;20909;-78
2021/09/04 09:24:18;;;;;;;21.97;3.47;;;;;;;17.02;71.73;100112.23;1748683;80;20961;-74
2021/09/04 09:26:54;;;;;;;20.72;3.45;;;;;;;17.25;71.61;100108.02;1759313;80;21048;-76
2021/09/04 09:29:31;;;;;;;8.83;2.43;;;;;;;17.37;71.18;100111.98;1761432;79;20948;-76
2021/09/04 09:32:09;;;;;;;4.42;1.98;;;;;;;17.49;71.17;100108.97;1759703;80;20903;-76
2021/09/04 09:34:42;;;;;;;6.30;1.98;;;;;;;17.72;71.09;100106.50;1760500;80;20915;-77
2021/09/04 09:37:11;;;;;;;11.50;2.27;;;;;;;17.86;70.61;100114.31;1761149;81;20918;-77
2021/09/04 09:39:42;;;;;;;23.62;5.50;;;;;;;17.97;70.75;100117.03;1759341;80;21029;-76
2021/09/04 09:42:11;;;;;;;10.18;3.67;;;;;;;18.08;70.11;100115.78;1768547;80;20941;-77
2021/09/04 09:44:39;;;;;;;4.65;1.92;;;;;;;18.01;69.40;100122.48;1766051;80;20937;-77
2021/09/04 09:47:08;;;;;;;19.77;4.15;;;;;;;17.81;67.72;100120.40;1757717;80;20933;-76
2021/09/04 09:49:43;;;;;;;30.88;3.15;;;;;;;17.62;69.47;100122.16;1760186;80;20922;-76
2021/09/04 09:52:12;;;;;;;10.08;2.12;;;;;;;17.72;69.45;100121.03;1758749;80;22146;-76
2021/09/04 09:54:40;;;;;;;3.45;1.15;;;;;;;17.66;68.93;100131.06;1765933;80;20933;-76
2021/09/04 09:57:10;;;;;;;4.12;1.40;;;;;;;17.55;68.76;100124.37;1761309;80;20932;-77
2021/09/04 09:59:38;;;;;;;4.10;1.50;;;;;;;17.33;68.36;100121.53;1773022;80;21477;-76
2021/09/04 10:02:10;;;;;;;9.85;2.80;;;;;;;17.29;68.72;100117.43;1767356;80;20890;-77
2021/09/04 10:04:39;;;;;;;4.58;2.05;;;;;;;17.29;68.49;100117.43;1762767;81;21055;-77
2021/09/04 10:07:08;;;;;;;2.90;1.57;;;;;;;17.29;68.24;100117.43;1768151;80;21445;-76
2021/09/04 10:09:37;;;;;;;4.35;1.25;;;;;;;17.28;67.78;100124.95;1770062;80;20893;-74
2021/09/04 10:12:05;;;;;;;2.52;1.35;;;;;;;17.09;67.83;100128.87;1761447;80;21443;-75
2021/09/04 10:14:33;;;;;;;6.60;1.32;;;;;;;16.93;67.42;100127.73;1763135;79;20920;-75
2021/09/04 10:17:03;;;;;;;10.15;1.50;;;;;;;16.87;68.09;100124.67;1772796;79;21971;-77
2021/09/04 10:19:32;;;;;;;9.20;1.40;;;;;;;16.92;67.78;100122.58;1771409;80;20925;-74
2021/09/04 10:22:02;;;;;;;36.35;4.72;;;;;;;16.91;67.62;100131.42;1767486;80;21003;-75
2021/09/04 10:24:51;;;;;;;11.35;2.30;;;;;;;16.82;67.39;100124.97;1770871;79;20953;-74
2021/09/04 10:27:37;;;;;;;16.20;2.83;;;;;;;16.80;67.51;100124.22;1768162;79;22123;-74
2021/09/04 10:30:35;;;;;;;6.00;2.12;;;;;;;16.87;67.45;100128.63;1769791;79;21314;-72
2021/09/04 10:33:11;;;;;;;2.20;1.17;;;;;;;16.81;67.21;100131.69;1772375;79;20950;-73
2021/09/04 10:35:49;;;;;;;12.47;2.00;;;;;;;16.69;67.06;100137.23;1769326;79;20957;-75
2021/09/04 10:38:23;;;;;;;2.98;1.30;;;;;;;16.53;66.64;100142.69;1769171;79;21053;-74
2021/09/04 10:40:52;;;;;;;2.33;1.15;;;;;;;16.32;65.62;100142.28;1771376;79;20957;-74
2021/09/04 10:43:21;;;;;;;12.58;1.82;;;;;;;16.04;66.04;100144.03;1770205;79;21043;-73
2021/09/04 10:45:51;;;;;;;5.60;1.30;;;;;;;15.95;66.69;100143.78;1770427;79;21465;-73
2021/09/04 10:48:22;;;;;;;4.25;1.45;;;;;;;15.88;66.59;100146.81;1771176;79;20945;-73
2021/09/04 10:51:10;;;;;;;1.52;1.15;;;;;;;15.85;66.23;100147.00;1775150;79;21012;-74
2021/09/04 10:53:49;;;;;;;7.53;1.80;;;;;;;15.51;64.81;100146.86;1765842;79;21510;-74
2021/09/04 10:56:31;;;;;;;13.08;1.80;;;;;;;15.15;65.66;100140.72;1768089;79;21024;-74
2021/09/04 10:58:58;;;;;;;6.12;1.05;;;;;;;15.24;66.46;100142.82;1770861;79;20935;-73
2021/09/04 11:01:34;;;;;;;3.83;1.00;;;;;;;15.29;65.93;100143.40;1759670;79;20988;-73
2021/09/04 11:04:01;;;;;;;1.82;0.90;;;;;;;15.31;65.93;100146.76;1763146;79;20891;-74
2021/09/04 11:06:28;;;;;;;1.53;1.00;;;;;;;15.28;65.10;100146.95;1763052;79;20930;-74
2021/09/04 11:08:54;;;;;;;2.00;1.10;;;;;;;15.29;65.30;100144.71;1763624;79;21901;-74
2021/09/04 11:11:39;;;;;;;5.78;1.05;;;;;;;15.36;65.00;100134.17;1766987;79;20975;-74
2021/09/04 11:14:18;;;;;;;2.20;1.10;;;;;;;15.48;65.29;100143.11;1766217;79;20935;-73
2021/09/04 11:16:50;;;;;;;1.85;1.12;;;;;;;15.65;65.18;100147.34;1766098;79;20915;-72
2021/09/04 11:19:33;;;;;;;1.75;1.10;;;;;;;15.80;64.97;100141.17;1761324;79;20945;-74
2021/09/04 11:22:10;;;;;;;4.35;1.12;;;;;;;15.98;64.68;100151.48;1718287;81;21030;-74
2021/09/04 11:24:43;;;;;;;6.87;1.67;;;;;;;16.03;65.09;100152.05;1736467;81;20941;-73
2021/09/04 11:27:19;;;;;;;2.10;1.40;;;;;;;16.22;65.49;100155.21;1676648;82;21646;-74
2021/09/04 11:29:54;;;;;;;1.40;1.00;;;;;;;16.27;65.13;100156.22;1767675;79;20948;-74
2021/09/04 11:32:28;;;;;;;2.92;1.00;;;;;;;16.25;65.18;100147.11;1767883;79;20968;-72
2021/09/04 11:35:13;;;;;;;2.67;1.02;;;;;;;16.24;65.30;100150.67;1766875;79;20903;-71